Time;durP1;ratioP1;P1;durP2;ratioP2;P2;SDS_P1;SDS_P2;PMS_P1;PMS_P2;Temp;Humidity;BMP_temperature;BMP_pressure;BME280_temperature;BME280_humidity;BME280_pressure;Samples;Min_cycle;Max_cycle;Signal;HPM_P1;HPM_P2
2020/12/07 00:00:26;;;;;;;30.98;12.73;;;;;;;0.56;100.00;101265.94;5114873;27;20135;-70
2020/12/07 00:03:12;;;;;;;37.22;13.80;;;;;;;0.59;100.00;101263.34;5114436;27;20092;-68
2020/12/07 00:05:59;;;;;;;22.55;10.80;;;;;;;0.63;100.00;101266.72;5114346;27;20111;-69
2020/12/07 00:08:46;;;;;;;30.85;13.57;;;;;;;0.62;100.00;101268.44;5114146;27;20080;-70
2020/12/07 00:11:33;;;;;;;33.42;13.85;;;;;;;0.62;100.00;101263.31;5114862;27;20047;-69
2020/12/07 00:14:19;;;;;;;28.55;11.98;;;;;;;0.61;100.00;101271.88;5114441;27;20134;-69
2020/12/07 00:17:06;;;;;;;31.80;13.88;;;;;;;0.60;100.00;101262.47;5114158;27;20094;-69
2020/12/07 00:19:54;;;;;;;31.58;11.82;;;;;;;0.63;100.00;101266.72;5112988;27;20047;-68
2020/12/07 00:22:40;;;;;;;28.23;11.82;;;;;;;0.65;100.00;101265.81;5113788;27;20120;-69
2020/12/07 00:25:27;;;;;;;33.78;15.02;;;;;;;0.59;100.00;101255.63;5114316;27;20147;-70
2020/12/07 00:28:13;;;;;;;28.27;13.23;;;;;;;0.57;100.00;101259.94;5113899;27;20127;-69
2020/12/07 00:31:03;;;;;;;28.30;11.07;;;;;;;0.61;100.00;101258.16;5114044;27;20080;-69
2020/12/07 00:33:49;;;;;;;28.48;12.77;;;;;;;0.62;100.00;101254.69;5113326;27;20055;-70
2020/12/07 00:36:36;;;;;;;30.40;12.75;;;;;;;0.62;100.00;101254.69;5114036;27;20490;-69
2020/12/07 00:39:22;;;;;;;28.75;12.82;;;;;;;0.61;100.00;101255.59;5113743;28;20050;-70
2020/12/07 00:42:09;;;;;;;27.77;12.63;;;;;;;0.62;100.00;101249.56;5118125;27;20126;-70
2020/12/07 00:44:56;;;;;;;29.27;12.05;;;;;;;0.60;100.00;101253.88;5120256;27;20545;-69
2020/12/07 00:47:42;;;;;;;29.83;13.57;;;;;;;0.59;100.00;101250.47;5120878;27;20055;-70
2020/12/07 00:50:28;;;;;;;29.13;12.77;;;;;;;0.63;100.00;101248.72;5120720;27;20043;-69
2020/12/07 00:53:16;;;;;;;28.55;12.20;;;;;;;0.63;100.00;101235.84;5106226;27;20047;-68
2020/12/07 00:56:03;;;;;;;27.00;12.00;;;;;;;0.62;100.00;101245.28;5106621;27;20047;-70
2020/12/07 00:58:49;;;;;;;28.83;13.23;;;;;;;0.59;100.00;101237.59;5115845;27;20134;-69
2020/12/07 01:01:37;;;;;;;21.38;10.10;;;;;;;0.62;100.00;101242.72;5104035;27;20043;-68
2020/12/07 01:04:25;;;;;;;31.63;13.98;;;;;;;0.65;100.00;101249.53;5104693;27;20051;-68
2020/12/07 01:07:14;;;;;;;29.77;12.68;;;;;;;0.63;100.00;101239.25;5106200;27;20609;-70
2020/12/07 01:10:05;;;;;;;24.58;12.88;;;;;;;0.64;100.00;101245.25;5120655;27;20130;-69
2020/12/07 01:12:53;;;;;;;29.90;13.77;;;;;;;0.64;100.00;101250.41;5117446;27;20588;-69
2020/12/07 01:15:40;;;;;;;31.42;14.20;;;;;;;0.62;100.00;101242.72;5120866;27;20082;-69
2020/12/07 01:18:27;;;;;;;31.92;14.18;;;;;;;0.63;100.00;101254.69;5105775;27;20141;-69
2020/12/07 01:21:16;;;;;;;31.30;14.35;;;;;;;0.64;100.00;101251.25;5120770;27;20134;-70
2020/12/07 01:24:04;;;;;;;30.38;12.70;;;;;;;0.66;100.00;101264.09;5106079;27;20047;-69
2020/12/07 01:26:51;;;;;;;37.58;13.80;;;;;;;0.65;100.00;101246.94;5120817;27;20123;-69
2020/12/07 01:29:40;;;;;;;31.55;15.05;;;;;;;0.62;100.00;101253.00;5120280;27;20050;-70
2020/12/07 01:32:27;;;;;;;32.45;14.45;;;;;;;0.62;100.00;101257.28;5106220;27;20058;-69
2020/12/07 01:35:13;;;;;;;32.80;14.68;;;;;;;0.64;100.00;101248.69;5120135;27;20482;-70
2020/12/07 01:38:00;;;;;;;34.63;14.90;;;;;;;0.64;100.00;101248.69;5106130;27;20047;-69
2020/12/07 01:40:47;;;;;;;33.10;15.30;;;;;;;0.66;100.00;101246.91;5119836;27;20108;-70
2020/12/07 01:43:35;;;;;;;33.15;13.43;;;;;;;0.68;100.00;101244.34;5105836;27;20047;-70
2020/12/07 01:46:23;;;;;;;34.03;14.43;;;;;;;0.66;100.00;101249.47;5120196;27;20158;-69
2020/12/07 01:49:12;;;;;;;28.35;12.02;;;;;;;0.63;100.00;101249.56;5104461;27;20086;-70
2020/12/07 01:51:59;;;;;;;30.48;13.70;;;;;;;0.64;100.00;101238.38;5106068;27;20189;-69
2020/12/07 01:54:47;;;;;;;25.38;11.00;;;;;;;0.66;100.00;101238.34;5102092;27;20047;-69
2020/12/07 01:57:33;;;;;;;27.95;12.80;;;;;;;0.65;100.00;101242.66;5102923;27;20043;-69
2020/12/07 02:00:24;;;;;;;25.33;12.27;;;;;;;0.67;100.00;101246.06;5103137;27;20068;-70
2020/12/07 02:03:20;;;;;;;25.92;12.25;;;;;;;0.66;100.00;101243.50;5102776;27;20059;-69
2020/12/07 02:06:07;;;;;;;29.50;12.32;;;;;;;0.66;100.00;101241.75;5099373;27;20389;-69
2020/12/07 02:08:54;;;;;;;26.50;12.80;;;;;;;0.66;100.00;101238.34;5115373;27;20075;-69
2020/12/07 02:11:43;;;;;;;29.65;14.07;;;;;;;0.64;100.00;101225.50;5102937;27;20135;-69
2020/12/07 02:14:29;;;;;;;29.83;14.05;;;;;;;0.61;100.00;101227.28;5116291;27;20039;-70
2020/12/07 02:17:17;;;;;;;34.55;13.80;;;;;;;0.63;100.00;101226.38;5102620;27;20051;-69
2020/12/07 02:20:04;;;;;;;29.27;13.82;;;;;;;0.62;100.00;101235.00;5087818;27;20069;-69
2020/12/07 02:22:51;;;;;;;31.73;14.60;;;;;;;0.62;100.00;101235.00;5115631;27;20130;-70
2020/12/07 02:25:47;;;;;;;29.90;14.50;;;;;;;0.62;100.00;101229.84;5115924;27;20051;-68
2020/12/07 02:28:34;;;;;;;33.70;14.48;;;;;;;0.62;100.00;101227.25;5101847;27;20058;-68
2020/12/07 02:31:21;;;;;;;35.13;15.48;;;;;;;0.64;100.00;101225.50;5116037;27;20142;-69
2020/12/07 02:34:07;;;;;;;33.08;15.07;;;;;;;0.60;100.00;101223.84;5101175;27;20094;-70
2020/12/07 02:36:58;;;;;;;24.20;12.27;;;;;;;0.60;100.00;101218.69;5101456;27;20469;-69
2020/12/07 02:39:44;;;;;;;37.97;15.95;;;;;;;0.63;100.00;101228.13;5101916;27;20466;-70
2020/12/07 02:42:36;;;;;;;37.30;15.60;;;;;;;0.61;100.00;101224.69;5114247;27;20047;-69
2020/12/07 02:45:25;;;;;;;39.40;15.52;;;;;;;0.60;100.00;101217.84;5101811;27;20047;-69
2020/12/07 02:48:20;;;;;;;36.45;15.05;;;;;;;0.61;100.00;101222.13;5101865;27;20421;-69
2020/12/07 02:51:12;;;;;;;34.50;15.30;;;;;;;0.61;100.00;101211.81;5101467;27;20063;-69
2020/12/07 02:53:59;;;;;;;31.10;13.20;;;;;;;0.60;100.00;101223.84;5101654;27;20043;-69
2020/12/07 02:56:47;;;;;;;37.60;14.63;;;;;;;0.60;100.00;101234.16;5101321;27;20100;-70
2020/12/07 02:59:33;;;;;;;34.03;14.15;;;;;;;0.60;100.00;101231.56;5101769;27;20051;-69
2020/12/07 03:02:21;;;;;;;31.80;14.75;;;;;;;0.61;100.00;101230.69;5101924;27;20082;-70
2020/12/07 03:05:10;;;;;;;29.77;14.70;;;;;;;0.60;100.00;101234.16;5101503;27;20051;-68
2020/12/07 03:07:58;;;;;;;31.20;14.35;;;;;;;0.61;100.00;101242.72;5101331;27;20592;-70
2020/12/07 03:10:44;;;;;;;25.38;12.52;;;;;;;0.63;100.00;101240.97;5115643;27;20546;-69
2020/12/07 03:13:31;;;;;;;29.55;13.25;;;;;;;0.64;100.00;101237.53;5101535;27;20043;-69
2020/12/07 03:16:21;;;;;;;30.83;14.23;;;;;;;0.63;100.00;101241.84;5101245;27;20063;-69
2020/12/07 03:19:07;;;;;;;28.85;14.20;;;;;;;0.65;100.00;101231.50;5101039;27;20047;-69
2020/12/07 03:21:54;;;;;;;28.05;12.77;;;;;;;0.62;100.00;101229.84;5100300;27;20075;-70
2020/12/07 03:24:41;;;;;;;28.25;12.68;;;;;;;0.63;100.00;101231.53;5100370;27;20035;-69
2020/12/07 03:27:29;;;;;;;23.98;11.50;;;;;;;0.62;100.00;101227.25;5100895;27;20122;-69
2020/12/07 03:30:16;;;;;;;25.73;12.98;;;;;;;0.64;100.00;101225.50;5100641;27;20054;-70
2020/12/07 03:33:03;;;;;;;27.10;13.40;;;;;;;0.60;100.00;101213.56;5114186;27;20055;-69
2020/12/07 03:35:54;;;;;;;23.52;11.32;;;;;;;0.60;100.00;101210.97;5100130;27;20059;-71
2020/12/07 03:38:40;;;;;;;26.63;12.55;;;;;;;0.61;100.00;101215.25;5099901;27;20069;-68
2020/12/07 03:41:27;;;;;;;27.23;12.48;;;;;;;0.60;100.00;101213.56;5100230;27;20066;-69
2020/12/07 03:44:14;;;;;;;29.52;12.45;;;;;;;0.61;100.00;101224.69;5114483;27;20047;-69
2020/12/07 03:47:03;;;;;;;28.65;12.85;;;;;;;0.58;100.00;101211.91;5100273;27;20055;-69
2020/12/07 03:49:49;;;;;;;24.33;11.85;;;;;;;0.59;100.00;101211.84;5099871;27;20047;-69
2020/12/07 03:52:38;;;;;;;30.77;13.35;;;;;;;0.60;100.00;101218.69;5100324;27;20418;-69
2020/12/07 03:55:31;;;;;;;29.42;13.98;;;;;;;0.56;100.00;101211.91;5100307;27;20138;-69
2020/12/07 03:58:23;;;;;;;24.95;13.05;;;;;;;0.57;100.00;101216.19;5099989;27;20051;-69
2020/12/07 04:01:10;;;;;;;29.55;13.68;;;;;;;0.54;100.00;101213.66;5100934;27;20440;-69
2020/12/07 04:04:04;;;;;;;31.73;14.85;;;;;;;0.57;100.00;101212.75;5100181;27;20077;-69
2020/12/07 04:06:51;;;;;;;27.42;12.93;;;;;;;0.57;100.00;101216.19;5114302;27;20050;-69
2020/12/07 04:09:41;;;;;;;31.17;13.55;;;;;;;0.58;100.00;101222.19;5099589;27;20047;-70
2020/12/07 04:12:27;;;;;;;30.85;14.07;;;;;;;0.58;100.00;101220.47;5110925;27;20043;-70
2020/12/07 04:15:14;;;;;;;30.80;14.00;;;;;;;0.58;100.00;101222.19;5113175;27;20494;-69
2020/12/07 04:18:02;;;;;;;28.05;13.85;;;;;;;0.59;100.00;101227.31;5110982;27;20047;-68
2020/12/07 04:20:49;;;;;;;34.25;14.70;;;;;;;0.61;100.00;101227.28;5094982;27;20055;-70
2020/12/07 04:23:35;;;;;;;31.05;13.90;;;;;;;0.59;100.00;101223.88;5097049;27;20382;-69
2020/12/07 04:26:23;;;;;;;34.45;15.93;;;;;;;0.60;100.00;101229.00;5112712;27;20100;-69
2020/12/07 04:29:09;;;;;;;26.13;13.43;;;;;;;0.59;100.00;101232.44;5112779;27;20055;-69
2020/12/07 04:31:56;;;;;;;34.80;15.30;;;;;;;0.57;100.00;101233.34;5098604;27;20059;-69
2020/12/07 04:34:42;;;;;;;31.15;15.27;;;;;;;0.57;100.00;101226.50;5111256;28;20117;-68
2020/12/07 04:37:28;;;;;;;29.63;14.20;;;;;;;0.59;100.00;101226.47;5112128;28;20055;-69
2020/12/07 04:40:15;;;;;;;30.48;13.65;;;;;;;0.61;100.00;101219.53;5112327;28;20485;-69
2020/12/07 04:43:02;;;;;;;32.70;15.13;;;;;;;0.58;100.00;101214.47;5112386;28;20239;-69
2020/12/07 04:45:48;;;;;;;34.95;15.68;;;;;;;0.57;100.00;101218.78;5111737;28;20478;-70
2020/12/07 04:48:35;;;;;;;32.75;14.85;;;;;;;0.58;100.00;101215.31;5099882;28;20054;-69
2020/12/07 04:51:23;;;;;;;27.13;13.68;;;;;;;0.58;100.00;101217.88;5114226;28;20055;-69
2020/12/07 04:54:12;;;;;;;35.15;15.85;;;;;;;0.56;100.00;101224.75;5113377;28;20586;-69
2020/12/07 04:57:01;;;;;;;37.75;15.48;;;;;;;0.59;99.90;101222.16;5113978;28;20100;-70
2020/12/07 04:59:47;;;;;;;35.75;15.23;;;;;;;0.59;100.00;101229.03;5113092;28;20123;-69
2020/12/07 05:02:38;;;;;;;32.45;15.05;;;;;;;0.57;100.00;101226.50;5113874;28;20047;-69
2020/12/07 05:05:24;;;;;;;36.17;15.73;;;;;;;0.59;100.00;101231.59;5113866;28;20111;-68
2020/12/07 05:08:12;;;;;;;29.75;13.75;;;;;;;0.58;100.00;101238.47;5113468;28;20586;-69
2020/12/07 05:11:02;;;;;;;29.85;15.18;;;;;;;0.59;99.82;101239.31;5114124;28;20444;-70
2020/12/07 05:14:12;;;;;;;31.27;14.32;;;;;;;0.59;100.00;101247.03;5113661;28;20043;-69
2020/12/07 05:16:59;;;;;;;31.17;15.65;;;;;;;0.58;100.00;101250.50;5113579;28;20527;-69
2020/12/07 05:19:46;;;;;;;34.00;15.88;;;;;;;0.58;100.00;101251.34;5113458;28;20063;-69
2020/12/07 05:22:34;;;;;;;30.08;15.77;;;;;;;0.61;99.80;101258.16;5113835;28;20108;-69
2020/12/07 05:25:21;;;;;;;29.25;14.93;;;;;;;0.63;99.73;101259.84;5113348;28;20487;-69
2020/12/07 05:28:11;;;;;;;33.55;14.52;;;;;;;0.62;100.00;101271.03;5110275;27;20051;-68
2020/12/07 05:30:58;;;;;;;34.45;15.13;;;;;;;0.64;99.94;101269.25;5117198;27;20405;-69
2020/12/07 05:33:49;;;;;;;30.88;14.88;;;;;;;0.64;99.79;101274.41;5116572;27;20039;-69
2020/12/07 05:36:35;;;;;;;28.15;13.68;;;;;;;0.64;99.93;101274.41;5117001;27;20047;-70
2020/12/07 05:39:25;;;;;;;31.98;14.27;;;;;;;0.65;99.46;101267.53;5115009;27;20177;-69
2020/12/07 05:42:12;;;;;;;23.77;12.63;;;;;;;0.67;99.22;101273.53;5112973;27;20032;-69
2020/12/07 05:44:59;;;;;;;29.17;14.60;;;;;;;0.67;99.63;101265.81;5114593;27;20818;-68
2020/12/07 05:47:48;;;;;;;26.33;14.07;;;;;;;0.68;99.28;101267.50;5093547;28;20051;-70
2020/12/07 05:50:41;;;;;;;23.05;13.00;;;;;;;0.70;99.12;101284.59;5090446;28;19946;-68
2020/12/07 05:53:28;;;;;;;25.80;13.27;;;;;;;0.72;99.00;101279.47;5089783;28;20048;-69
2020/12/07 05:56:16;;;;;;;26.35;13.25;;;;;;;0.72;99.47;101292.34;5090365;28;20043;-69
2020/12/07 05:59:02;;;;;;;24.95;13.77;;;;;;;0.73;99.07;101291.44;5088514;28;20576;-70
2020/12/07 06:01:49;;;;;;;24.75;12.55;;;;;;;0.73;98.94;101297.44;5090585;28;20048;-70
2020/12/07 06:04:36;;;;;;;25.15;12.63;;;;;;;0.73;98.56;101297.44;5088541;28;20579;-69
2020/12/07 06:07:27;;;;;;;19.35;11.50;;;;;;;0.75;99.29;101292.25;5089595;28;20420;-70
2020/12/07 06:10:16;;;;;;;24.00;12.55;;;;;;;0.74;98.71;101288.00;5086482;28;20079;-69
2020/12/07 06:13:06;;;;;;;20.75;11.65;;;;;;;0.75;98.49;101300.00;5087892;28;20044;-70
2020/12/07 06:15:54;;;;;;;22.42;12.52;;;;;;;0.71;98.92;101304.34;5088845;28;20476;-69
2020/12/07 06:18:42;;;;;;;20.80;11.20;;;;;;;0.74;98.05;101298.28;5088621;28;20133;-70
2020/12/07 06:21:29;;;;;;;19.88;10.80;;;;;;;0.75;97.85;101305.13;5070827;28;20231;-69
2020/12/07 06:24:16;;;;;;;18.45;10.05;;;;;;;0.68;98.21;101296.66;5089757;28;20162;-68
2020/12/07 06:27:05;;;;;;;19.73;10.55;;;;;;;0.73;97.89;101294.03;5089029;28;20133;-69
2020/12/07 06:29:55;;;;;;;16.05;9.65;;;;;;;0.70;97.94;101299.22;5089762;28;20056;-69
2020/12/07 06:32:54;;;;;;;15.80;9.77;;;;;;;0.70;97.83;101312.94;5076918;28;20087;-70
2020/12/07 06:35:43;;;;;;;17.20;9.18;;;;;;;0.72;97.28;101318.06;5089685;28;20097;-69
2020/12/07 06:38:41;;;;;;;15.50;9.07;;;;;;;0.71;97.06;101308.63;5090136;28;20047;-69
2020/12/07 06:41:37;;;;;;;18.42;9.90;;;;;;;0.71;96.96;101319.81;5085608;28;20165;-70
2020/12/07 06:44:23;;;;;;;19.88;10.38;;;;;;;0.72;97.53;101320.66;5089179;28;20105;-70
2020/12/07 06:47:21;;;;;;;16.20;9.98;;;;;;;0.72;97.33;101318.06;5088798;28;20051;-69
2020/12/07 06:50:13;;;;;;;16.38;9.07;;;;;;;0.70;96.95;101322.38;5088119;28;20137;-71
2020/12/07 06:53:00;;;;;;;14.85;8.35;;;;;;;0.65;96.60;101321.59;5073171;28;20480;-69
2020/12/07 06:55:46;;;;;;;11.05;6.55;;;;;;;0.67;95.62;101330.16;5087622;28;20052;-70
2020/12/07 06:58:35;;;;;;;14.43;7.82;;;;;;;0.67;95.21;101332.75;5088105;28;20105;-69
2020/12/07 07:01:21;;;;;;;14.82;8.32;;;;;;;0.66;96.14;101328.44;5087798;28;20043;-69
2020/12/07 07:04:08;;;;;;;16.50;8.20;;;;;;;0.67;96.32;101335.31;5087893;28;20062;-69
2020/12/07 07:06:57;;;;;;;16.45;8.70;;;;;;;0.67;96.18;101336.16;5087877;28;20487;-70
2020/12/07 07:09:44;;;;;;;13.93;7.88;;;;;;;0.64;96.36;101343.06;5087539;28;20048;-69
2020/12/07 07:12:31;;;;;;;13.48;7.32;;;;;;;0.66;96.43;101346.47;5087360;28;20109;-68
2020/12/07 07:15:17;;;;;;;12.57;7.88;;;;;;;0.65;97.12;101352.47;5087559;28;20055;-70
2020/12/07 07:18:04;;;;;;;15.70;8.63;;;;;;;0.65;96.99;101355.06;5087535;28;20400;-69
2020/12/07 07:20:50;;;;;;;14.70;7.38;;;;;;;0.63;96.71;101349.94;5074966;28;20098;-70
2020/12/07 07:23:42;;;;;;;11.48;6.95;;;;;;;0.63;96.81;101351.66;5084420;28;20506;-70
2020/12/07 07:26:33;;;;;;;14.55;7.35;;;;;;;0.59;96.64;101362.88;5087363;28;20131;-69
2020/12/07 07:29:19;;;;;;;12.77;7.18;;;;;;;0.58;96.88;101354.31;5087375;28;20059;-68
2020/12/07 07:32:06;;;;;;;14.95;7.07;;;;;;;0.56;96.11;101361.16;5086761;28;20087;-69
2020/12/07 07:34:52;;;;;;;11.40;6.65;;;;;;;0.55;95.90;101348.34;5086449;28;20522;-71
2020/12/07 07:37:39;;;;;;;15.20;7.15;;;;;;;0.50;96.22;101356.13;5086625;28;20056;-69
2020/12/07 07:40:28;;;;;;;12.45;6.38;;;;;;;0.52;96.11;101364.66;5086591;28;20056;-68
2020/12/07 07:43:16;;;;;;;11.70;6.45;;;;;;;0.48;95.29;101356.13;5084336;28;20371;-70
2020/12/07 07:46:02;;;;;;;14.68;5.95;;;;;;;0.49;95.66;101362.97;5086146;28;20807;-69
2020/12/07 07:49:30;;;;;;;10.98;6.70;;;;;;;0.48;95.83;101357.88;5086619;28;20586;-69
2020/12/07 07:53:30;;;;;;;12.43;6.55;;;;;;;0.45;95.54;101368.19;5085465;28;20507;-69
2020/12/07 08:16:59;;;;;;;11.48;5.40;;;;;;;0.06;95.06;101364.38;5086163;28;20040;-69
2020/12/07 08:19:49;;;;;;;12.20;6.20;;;;;;;-0.03;95.49;101366.16;5100069;28;20044;-70
2020/12/07 08:22:35;;;;;;;10.63;5.32;;;;;;;-0.05;95.70;101369.59;5086175;28;20102;-70
2020/12/07 08:25:45;;;;;;;10.90;5.50;;;;;;;-0.13;94.36;101373.97;5086455;28;20044;-69
2020/12/07 08:28:37;;;;;;;9.13;5.20;;;;;;;-0.16;95.01;101371.44;5082864;28;20109;-70
2020/12/07 08:31:24;;;;;;;9.90;5.70;;;;;;;-0.18;95.30;101378.31;5082888;28;21641;-69
2020/12/07 08:34:12;;;;;;;12.40;5.80;;;;;;;-0.26;94.38;101381.78;5083484;28;20511;-69
2020/12/07 08:36:59;;;;;;;11.73;5.75;;;;;;;-0.28;94.88;101386.13;5083099;28;20239;-70
2020/12/07 08:39:45;;;;;;;10.18;5.78;;;;;;;-0.35;95.44;101394.72;5085493;28;20372;-71
2020/12/07 08:42:32;;;;;;;13.43;5.85;;;;;;;-0.32;94.92;101399.84;5086106;28;20074;-70
2020/12/07 08:45:19;;;;;;;13.23;5.97;;;;;;;-0.37;94.68;101405.91;5085815;28;20458;-69
2020/12/07 08:48:05;;;;;;;9.52;5.03;;;;;;;-0.39;95.54;101411.03;5085532;28;20629;-69
2020/12/07 08:50:56;;;;;;;14.20;5.90;;;;;;;-0.42;95.45;101412.81;5085958;28;20121;-71
2020/12/07 08:53:42;;;;;;;14.13;5.32;;;;;;;-0.44;95.41;101412.78;5082865;28;20089;-72
2020/12/07 08:56:29;;;;;;;10.32;4.80;;;;;;;-0.47;94.79;101425.69;5082392;28;20544;-69
2020/12/07 08:59:16;;;;;;;9.75;5.05;;;;;;;-0.48;95.33;101425.66;5084253;28;20308;-69
2020/12/07 09:02:02;;;;;;;13.02;5.85;;;;;;;-0.50;95.08;101428.25;5082981;28;20049;-70
2020/12/07 09:04:49;;;;;;;9.55;5.05;;;;;;;-0.58;95.44;101427.47;5087828;28;20087;-70
2020/12/07 09:07:35;;;;;;;13.25;5.63;;;;;;;-0.56;95.67;101436.03;5089408;28;21411;-69
2020/12/07 09:10:21;;;;;;;9.88;5.28;;;;;;;-0.59;95.42;101428.31;5088783;28;20145;-70
2020/12/07 09:13:08;;;;;;;10.73;5.65;;;;;;;-0.57;95.96;101439.44;5075932;28;20095;-70
2020/12/07 09:15:54;;;;;;;11.93;5.30;;;;;;;-0.61;95.51;101440.34;5088458;28;20048;-69
2020/12/07 09:18:41;;;;;;;11.20;5.50;;;;;;;-0.60;95.14;101424.91;5089434;28;20188;-69
2020/12/07 09:21:27;;;;;;;14.45;6.13;;;;;;;-0.63;95.45;101430.06;5089795;28;20127;-70
2020/12/07 09:24:18;;;;;;;8.55;5.63;;;;;;;-0.64;95.52;101435.22;5089412;28;20105;-71
2020/12/07 09:27:04;;;;;;;10.20;5.63;;;;;;;-0.68;95.36;101433.53;5088643;28;20048;-70
2020/12/07 09:29:51;;;;;;;12.00;5.63;;;;;;;-0.68;95.25;101433.53;5086018;28;20044;-71
2020/12/07 09:32:37;;;;;;;10.00;5.90;;;;;;;-0.71;94.97;101431.84;5089438;28;20051;-71
2020/12/07 09:35:24;;;;;;;9.48;4.57;;;;;;;-0.72;95.53;101442.09;5089879;28;20098;-69
2020/12/07 09:38:11;;;;;;;9.13;4.82;;;;;;;-0.71;95.42;101438.66;5088673;28;20538;-68
2020/12/07 09:40:58;;;;;;;10.48;5.05;;;;;;;-0.71;95.26;101438.66;5090131;28;20044;-70
2020/12/07 09:43:44;;;;;;;10.85;4.47;;;;;;;-0.73;94.64;101432.69;5093651;28;20054;-70
2020/12/07 09:46:31;;;;;;;11.07;5.30;;;;;;;-0.79;95.50;101437.03;5089107;28;20040;-69
2020/12/07 09:49:19;;;;;;;13.32;5.20;;;;;;;-0.78;95.13;101438.72;5089262;28;20138;-70
2020/12/07 09:52:06;;;;;;;9.98;4.72;;;;;;;-0.78;95.76;101440.44;5088759;28;20113;-69
2020/12/07 09:54:52;;;;;;;9.23;5.10;;;;;;;-0.80;95.78;101439.59;5088772;28;20119;-70
2020/12/07 09:57:39;;;;;;;7.40;4.45;;;;;;;-0.79;95.51;101447.28;5089151;28;20530;-71
2020/12/07 10:00:25;;;;;;;8.30;4.38;;;;;;;-0.84;94.94;101443.06;5089289;28;20044;-70
2020/12/07 10:03:11;;;;;;;8.55;4.93;;;;;;;-0.88;95.62;101442.22;5076271;28;20105;-69
2020/12/07 10:05:58;;;;;;;10.25;4.43;;;;;;;-0.92;95.49;101442.22;5084365;28;20109;-71
2020/12/07 10:08:45;;;;;;;9.23;4.72;;;;;;;-0.97;94.58;101443.97;5086889;28;20052;-69
2020/12/07 10:11:32;;;;;;;9.00;4.80;;;;;;;-0.97;95.88;101461.94;5088837;28;20089;-68
2020/12/07 10:14:18;;;;;;;11.50;4.35;;;;;;;-1.00;95.10;101455.09;5085702;28;20120;-67
2020/12/07 10:17:05;;;;;;;10.18;4.47;;;;;;;-1.01;95.09;101453.41;5075921;28;20079;-68
2020/12/07 10:19:52;;;;;;;10.13;4.20;;;;;;;-1.10;95.86;101453.44;5088472;28;20052;-68
2020/12/07 10:22:38;;;;;;;11.02;4.50;;;;;;;-1.10;95.72;101450.88;5088171;28;20048;-69
2020/12/07 10:25:25;;;;;;;7.70;4.63;;;;;;;-1.12;95.45;101453.47;5084707;28;20141;-68
2020/12/07 10:28:11;;;;;;;8.85;4.60;;;;;;;-1.16;94.89;101449.19;5087983;28;20093;-69
2020/12/07 10:30:58;;;;;;;10.57;4.53;;;;;;;-1.21;94.81;101450.94;5088518;28;20533;-68
2020/12/07 10:33:44;;;;;;;8.18;4.50;;;;;;;-1.22;95.71;101446.66;5087625;28;20048;-68
2020/12/07 10:36:30;;;;;;;7.75;4.25;;;;;;;-1.23;95.71;101450.09;5088277;28;20079;-69
2020/12/07 10:39:17;;;;;;;12.85;4.57;;;;;;;-1.25;95.02;101448.38;5085327;28;20109;-70
2020/12/07 10:42:03;;;;;;;10.25;4.40;;;;;;;-1.29;95.24;101452.66;5088321;28;20137;-69
2020/12/07 10:44:50;;;;;;;10.65;4.93;;;;;;;-1.34;96.38;101444.97;5087288;28;20044;-69
2020/12/07 10:47:37;;;;;;;9.52;4.47;;;;;;;-1.38;95.89;101450.97;5085870;28;20133;-70
2020/12/07 10:50:23;;;;;;;9.63;3.78;;;;;;;-1.42;94.80;101449.31;5087463;28;20565;-68
2020/12/07 10:53:10;;;;;;;9.13;4.13;;;;;;;-1.44;95.36;101439.91;5086749;28;20055;-69
2020/12/07 10:55:58;;;;;;;7.97;4.25;;;;;;;-1.48;94.88;101445.91;5087203;28;20048;-69
2020/12/07 10:58:45;;;;;;;10.85;4.80;;;;;;;-1.48;95.26;101445.91;5085858;28;20074;-69
2020/12/07 11:01:31;;;;;;;7.75;4.22;;;;;;;-1.53;95.98;101455.31;5087714;28;20136;-69
2020/12/07 11:04:17;;;;;;;8.90;4.07;;;;;;;-1.56;95.93;101459.59;5087905;28;20040;-68
2020/12/07 11:07:09;;;;;;;7.72;4.05;;;;;;;-1.58;94.84;101461.31;5063633;28;20051;-67
2020/12/07 11:09:55;;;;;;;7.10;3.63;;;;;;;-1.57;96.25;101464.72;5087719;28;20073;-68
2020/12/07 11:12:44;;;;;;;7.97;3.92;;;;;;;-1.60;95.98;101459.63;5084206;28;20135;-69
2020/12/07 11:15:31;;;;;;;8.32;3.85;;;;;;;-1.67;95.68;101452.78;5087568;28;20048;-70
2020/12/07 11:18:18;;;;;;;10.27;3.80;;;;;;;-1.69;95.68;101450.22;5084801;28;20056;-70
2020/12/07 11:21:14;;;;;;;7.57;4.40;;;;;;;-1.70;95.56;101455.38;5086802;28;20141;-68
2020/12/07 11:24:01;;;;;;;7.20;3.63;;;;;;;-1.73;95.98;101457.94;5085716;28;20055;-69
2020/12/07 11:26:48;;;;;;;8.88;4.28;;;;;;;-1.74;94.54;101456.25;5087345;28;20113;-69
2020/12/07 11:29:34;;;;;;;11.45;4.28;;;;;;;-1.78;94.70;101449.41;5087668;28;20055;-68
2020/12/07 11:32:21;;;;;;;7.47;3.45;;;;;;;-1.78;94.74;101447.69;5087082;28;20510;-68
2020/12/07 11:35:07;;;;;;;8.02;4.10;;;;;;;-1.82;95.84;101440.84;5086689;28;20060;-70
2020/12/07 11:38:07;;;;;;;8.23;3.45;;;;;;;-1.84;94.66;101450.28;5087166;28;20055;-68
2020/12/07 11:41:25;;;;;;;6.82;3.75;;;;;;;-1.84;95.22;101445.16;5086896;28;20056;-70
2020/12/07 11:44:14;;;;;;;8.05;3.65;;;;;;;-1.88;94.69;101453.69;5083135;28;20044;-69
2020/12/07 11:47:05;;;;;;;7.35;3.63;;;;;;;-1.86;95.71;101451.97;5078264;28;20478;-69
2020/12/07 11:49:51;;;;;;;8.10;3.53;;;;;;;-1.89;96.25;101454.56;5082719;28;20060;-70
2020/12/07 11:52:37;;;;;;;10.38;4.18;;;;;;;-1.94;95.02;101446.88;5086699;28;20083;-69
2020/12/07 11:55:24;;;;;;;6.00;2.83;;;;;;;-1.95;96.07;101450.25;5068890;28;20197;-70
2020/12/07 11:58:10;;;;;;;10.73;4.05;;;;;;;-1.95;94.90;101449.41;5086608;28;20097;-67
2020/12/07 12:00:57;;;;;;;7.78;2.92;;;;;;;-2.01;95.15;101446.88;5086849;28;20144;-71
2020/12/07 12:03:46;;;;;;;6.78;3.50;;;;;;;-2.06;94.87;101452.84;5086379;28;20044;-70
2020/12/07 12:06:35;;;;;;;6.97;3.20;;;;;;;-2.06;94.96;101450.28;5086661;28;20093;-70
2020/12/07 12:09:22;;;;;;;7.93;3.60;;;;;;;-2.10;95.66;101451.13;5086129;28;20137;-67
2020/12/07 12:12:08;;;;;;;7.03;3.00;;;;;;;-2.14;95.48;101448.56;5086947;28;20105;-69
2020/12/07 12:14:54;;;;;;;6.47;3.65;;;;;;;-2.19;94.85;101450.28;5086382;28;20433;-67
2020/12/07 12:17:41;;;;;;;6.68;3.10;;;;;;;-2.22;94.56;101447.75;5085921;28;20097;-70
2020/12/07 12:20:28;;;;;;;8.13;3.20;;;;;;;-2.23;95.87;101452.03;5086166;28;20072;-67
2020/12/07 12:23:14;;;;;;;7.22;3.28;;;;;;;-2.30;95.77;101449.44;5081144;28;20056;-71
2020/12/07 12:26:01;;;;;;;9.32;3.60;;;;;;;-2.29;94.95;101449.44;5085778;28;20425;-69
2020/12/07 12:28:48;;;;;;;8.10;3.80;;;;;;;-2.34;95.08;101446.03;5085611;28;20071;-67
2020/12/07 12:31:35;;;;;;;6.32;3.35;;;;;;;-2.41;94.61;101441.75;5085549;28;20088;-68
2020/12/07 12:34:21;;;;;;;7.95;3.70;;;;;;;-2.42;94.73;101446.03;5085642;28;20109;-69
2020/12/07 12:37:08;;;;;;;5.72;2.78;;;;;;;-2.48;94.31;101437.47;5068707;28;20164;-70
2020/12/07 12:39:54;;;;;;;5.55;2.97;;;;;;;-2.48;95.13;101440.88;5084508;28;20087;-68
2020/12/07 12:42:41;;;;;;;7.20;3.22;;;;;;;-2.48;95.55;101445.16;5082863;28;20450;-69
2020/12/07 12:45:27;;;;;;;7.75;3.63;;;;;;;-2.50;95.90;101446.88;5083425;28;20508;-69
2020/12/07 12:48:14;;;;;;;10.30;4.93;;;;;;;-2.51;96.26;101448.59;5100234;28;20105;-69
2020/12/07 12:51:01;;;;;;;9.00;3.33;;;;;;;-2.55;95.18;101449.44;5085776;28;20055;-71
2020/12/07 12:53:47;;;;;;;10.43;3.00;;;;;;;-2.54;95.40;101442.59;5065282;28;20431;-70
2020/12/07 12:56:33;;;;;;;8.40;3.10;;;;;;;-2.60;94.79;101436.63;5085265;28;20048;-69
2020/12/07 12:59:20;;;;;;;7.18;3.10;;;;;;;-2.63;95.36;101446.84;5085996;28;20526;-70
2020/12/07 13:02:06;;;;;;;5.60;3.35;;;;;;;-2.64;95.55;101447.72;5085757;28;20059;-70
2020/12/07 13:04:53;;;;;;;8.40;3.58;;;;;;;-2.64;95.97;101459.66;5086122;28;20052;-70
2020/12/07 13:07:41;;;;;;;6.65;3.30;;;;;;;-2.66;94.99;101459.66;5073205;28;20619;-71
2020/12/07 13:10:27;;;;;;;8.52;3.33;;;;;;;-2.74;95.26;101457.94;5084367;28;20047;-68
2020/12/07 13:13:14;;;;;;;9.75;2.95;;;;;;;-2.74;94.45;101463.06;5085373;28;20048;-68